sensor_id;sensor_type;location;lat;lon;timestamp;P1;durP1;ratioP1;P2;durP2;ratioP2
12950;SDS011;6540;50.858;7.232;2022-09-30T00:02:08;3.63;;;3.20;;
12950;SDS011;6540;50.858;7.232;2022-09-30T00:04:36;3.63;;;3.33;;
12950;SDS011;6540;50.858;7.232;2022-09-30T00:07:01;4.00;;;3.47;;
12950;SDS011;6540;50.858;7.232;2022-09-30T00:09:27;4.10;;;3.50;;
12950;SDS011;6540;50.858;7.232;2022-09-30T00:11:52;4.80;;;4.10;;
12950;SDS011;6540;50.858;7.232;2022-09-30T00:14:18;3.60;;;3.30;;
12950;SDS011;6540;50.858;7.232;2022-09-30T00:16:45;3.97;;;3.50;;
12950;SDS011;6540;50.858;7.232;2022-09-30T00:19:11;3.97;;;3.67;;
12950;SDS011;6540;50.858;7.232;2022-09-30T00:21:37;7.00;;;3.50;;
12950;SDS011;6540;50.858;7.232;2022-09-30T00:24:04;3.90;;;3.47;;
12950;SDS011;6540;50.858;7.232;2022-09-30T00:26:30;7.03;;;3.60;;
12950;SDS011;6540;50.858;7.232;2022-09-30T00:28:57;4.60;;;3.20;;
12950;SDS011;6540;50.858;7.232;2022-09-30T00:31:24;3.77;;;3.33;;
12950;SDS011;6540;50.858;7.232;2022-09-30T00:33:51;3.73;;;3.40;;
12950;SDS011;6540;50.858;7.232;2022-09-30T00:39:00;4.20;;;3.60;;
12950;SDS011;6540;50.858;7.232;2022-09-30T00:41:25;4.00;;;3.60;;
12950;SDS011;6540;50.858;7.232;2022-09-30T00:43:51;3.90;;;3.47;;
12950;SDS011;6540;50.858;7.232;2022-09-30T00:49:07;3.90;;;3.20;;
12950;SDS011;6540;50.858;7.232;2022-09-30T00:51:43;4.83;;;3.30;;
12950;SDS011;6540;50.858;7.232;2022-09-30T00:54:13;4.00;;;3.60;;
12950;SDS011;6540;50.858;7.232;2022-09-30T00:56:43;5.53;;;3.77;;
12950;SDS011;6540;50.858;7.232;2022-09-30T01:01:46;4.47;;;3.57;;
12950;SDS011;6540;50.858;7.232;2022-09-30T01:04:12;5.10;;;4.00;;
12950;SDS011;6540;50.858;7.232;2022-09-30T01:06:40;4.23;;;3.83;;
12950;SDS011;6540;50.858;7.232;2022-09-30T01:09:06;7.87;;;3.70;;
12950;SDS011;6540;50.858;7.232;2022-09-30T01:11:32;3.90;;;3.20;;
12950;SDS011;6540;50.858;7.232;2022-09-30T01:14:01;5.80;;;4.03;;
12950;SDS011;6540;50.858;7.232;2022-09-30T01:19:57;3.97;;;3.57;;
12950;SDS011;6540;50.858;7.232;2022-09-30T01:25:34;4.13;;;3.50;;
12950;SDS011;6540;50.858;7.232;2022-09-30T01:28:17;4.87;;;3.57;;
12950;SDS011;6540;50.858;7.232;2022-09-30T01:41:55;3.83;;;3.50;;
12950;SDS011;6540;50.858;7.232;2022-09-30T01:44:36;5.63;;;3.63;;
12950;SDS011;6540;50.858;7.232;2022-09-30T01:47:21;4.40;;;3.43;;
12950;SDS011;6540;50.858;7.232;2022-09-30T01:50:00;5.80;;;3.67;;
12950;SDS011;6540;50.858;7.232;2022-09-30T01:52:35;5.30;;;3.70;;
12950;SDS011;6540;50.858;7.232;2022-09-30T01:55:20;4.07;;;3.67;;
12950;SDS011;6540;50.858;7.232;2022-09-30T01:57:55;4.33;;;3.90;;
12950;SDS011;6540;50.858;7.232;2022-09-30T02:00:30;3.80;;;3.40;;
12950;SDS011;6540;50.858;7.232;2022-09-30T02:03:13;4.90;;;3.67;;
12950;SDS011;6540;50.858;7.232;2022-09-30T02:08:28;6.83;;;3.97;;
12950;SDS011;6540;50.858;7.232;2022-09-30T02:16:30;4.63;;;3.70;;
12950;SDS011;6540;50.858;7.232;2022-09-30T02:19:14;4.27;;;3.27;;
12950;SDS011;6540;50.858;7.232;2022-09-30T02:22:17;4.37;;;3.30;;
12950;SDS011;6540;50.858;7.232;2022-09-30T02:24:46;6.73;;;3.40;;
12950;SDS011;6540;50.858;7.232;2022-09-30T02:27:22;6.83;;;3.70;;
12950;SDS011;6540;50.858;7.232;2022-09-30T02:29:54;3.73;;;3.20;;
12950;SDS011;6540;50.858;7.232;2022-09-30T02:32:26;11.00;;;3.23;;
12950;SDS011;6540;50.858;7.232;2022-09-30T02:35:13;5.67;;;3.53;;
12950;SDS011;6540;50.858;7.232;2022-09-30T02:37:50;5.00;;;3.50;;
12950;SDS011;6540;50.858;7.232;2022-09-30T02:42:51;4.13;;;3.57;;
12950;SDS011;6540;50.858;7.232;2022-09-30T02:45:18;4.27;;;3.33;;
12950;SDS011;6540;50.858;7.232;2022-09-30T02:50:28;4.37;;;3.40;;
12950;SDS011;6540;50.858;7.232;2022-09-30T02:53:26;5.27;;;3.53;;
12950;SDS011;6540;50.858;7.232;2022-09-30T02:59:02;3.50;;;3.20;;
12950;SDS011;6540;50.858;7.232;2022-09-30T03:01:29;3.43;;;3.13;;
12950;SDS011;6540;50.858;7.232;2022-09-30T03:03:56;3.93;;;3.53;;
12950;SDS011;6540;50.858;7.232;2022-09-30T03:06:24;4.63;;;3.63;;
12950;SDS011;6540;50.858;7.232;2022-09-30T03:08:51;3.60;;;3.30;;
12950;SDS011;6540;50.858;7.232;2022-09-30T03:11:18;8.00;;;4.13;;
12950;SDS011;6540;50.858;7.232;2022-09-30T03:16:18;4.10;;;3.77;;
12950;SDS011;6540;50.858;7.232;2022-09-30T03:24:21;4.90;;;3.07;;
12950;SDS011;6540;50.858;7.232;2022-09-30T03:43:28;3.03;;;2.83;;
12950;SDS011;6540;50.858;7.232;2022-09-30T03:48:32;4.27;;;3.57;;
12950;SDS011;6540;50.858;7.232;2022-09-30T03:51:01;6.97;;;3.60;;
12950;SDS011;6540;50.858;7.232;2022-09-30T03:53:28;4.63;;;3.60;;
12950;SDS011;6540;50.858;7.232;2022-09-30T03:55:53;3.77;;;3.40;;
12950;SDS011;6540;50.858;7.232;2022-09-30T03:58:19;3.07;;;2.80;;
12950;SDS011;6540;50.858;7.232;2022-09-30T04:00:51;5.97;;;3.30;;
12950;SDS011;6540;50.858;7.232;2022-09-30T04:03:18;4.60;;;3.97;;
12950;SDS011;6540;50.858;7.232;2022-09-30T04:05:46;3.50;;;3.10;;
12950;SDS011;6540;50.858;7.232;2022-09-30T04:08:11;4.00;;;3.50;;
12950;SDS011;6540;50.858;7.232;2022-09-30T04:10:40;4.10;;;3.63;;
12950;SDS011;6540;50.858;7.232;2022-09-30T04:13:07;4.43;;;3.47;;
12950;SDS011;6540;50.858;7.232;2022-09-30T04:15:33;3.67;;;3.37;;
12950;SDS011;6540;50.858;7.232;2022-09-30T04:17:59;4.13;;;3.73;;
12950;SDS011;6540;50.858;7.232;2022-09-30T04:20:24;3.93;;;3.50;;
12950;SDS011;6540;50.858;7.232;2022-09-30T04:22:50;4.03;;;3.30;;
12950;SDS011;6540;50.858;7.232;2022-09-30T04:25:15;3.90;;;3.57;;
12950;SDS011;6540;50.858;7.232;2022-09-30T04:27:40;3.53;;;3.23;;
12950;SDS011;6540;50.858;7.232;2022-09-30T04:30:06;6.00;;;3.60;;
12950;SDS011;6540;50.858;7.232;2022-09-30T04:32:31;6.83;;;3.27;;
12950;SDS011;6540;50.858;7.232;2022-09-30T04:34:57;3.30;;;3.00;;
12950;SDS011;6540;50.858;7.232;2022-09-30T04:37:22;4.10;;;3.63;;
12950;SDS011;6540;50.858;7.232;2022-09-30T04:39:48;3.53;;;3.13;;
12950;SDS011;6540;50.858;7.232;2022-09-30T04:42:13;4.53;;;3.90;;
12950;SDS011;6540;50.858;7.232;2022-09-30T04:44:39;4.07;;;3.60;;
12950;SDS011;6540;50.858;7.232;2022-09-30T04:47:04;8.00;;;3.77;;
12950;SDS011;6540;50.858;7.232;2022-09-30T04:49:30;4.27;;;3.87;;
12950;SDS011;6540;50.858;7.232;2022-09-30T04:51:56;3.97;;;3.57;;
12950;SDS011;6540;50.858;7.232;2022-09-30T04:54:21;3.93;;;3.37;;
12950;SDS011;6540;50.858;7.232;2022-09-30T04:56:47;5.67;;;3.87;;
12950;SDS011;6540;50.858;7.232;2022-09-30T04:59:12;4.70;;;3.93;;
12950;SDS011;6540;50.858;7.232;2022-09-30T05:01:38;4.60;;;3.83;;
12950;SDS011;6540;50.858;7.232;2022-09-30T05:04:04;3.77;;;3.47;;
12950;SDS011;6540;50.858;7.232;2022-09-30T05:06:29;4.27;;;3.87;;
12950;SDS011;6540;50.858;7.232;2022-09-30T05:08:55;4.97;;;4.00;;
12950;SDS011;6540;50.858;7.232;2022-09-30T05:11:20;10.63;;;3.80;;
12950;SDS011;6540;50.858;7.232;2022-09-30T05:13:46;4.23;;;3.20;;
12950;SDS011;6540;50.858;7.232;2022-09-30T05:16:13;4.93;;;3.67;;
12950;SDS011;6540;50.858;7.232;2022-09-30T05:18:39;4.33;;;3.93;;
12950;SDS011;6540;50.858;7.232;2022-09-30T05:21:06;5.03;;;4.20;;
12950;SDS011;6540;50.858;7.232;2022-09-30T05:23:32;4.10;;;3.70;;
12950;SDS011;6540;50.858;7.232;2022-09-30T05:25:58;9.17;;;4.40;;
12950;SDS011;6540;50.858;7.232;2022-09-30T05:28:25;6.20;;;3.47;;
12950;SDS011;6540;50.858;7.232;2022-09-30T05:30:57;5.93;;;3.73;;
12950;SDS011;6540;50.858;7.232;2022-09-30T05:33:24;7.27;;;4.00;;
12950;SDS011;6540;50.858;7.232;2022-09-30T05:35:50;5.70;;;3.53;;
12950;SDS011;6540;50.858;7.232;2022-09-30T05:38:15;4.30;;;3.90;;
12950;SDS011;6540;50.858;7.232;2022-09-30T05:40:40;6.30;;;3.97;;
12950;SDS011;6540;50.858;7.232;2022-09-30T05:43:06;6.37;;;4.00;;
12950;SDS011;6540;50.858;7.232;2022-09-30T05:45:32;4.33;;;3.67;;
12950;SDS011;6540;50.858;7.232;2022-09-30T05:47:57;6.03;;;4.13;;
12950;SDS011;6540;50.858;7.232;2022-09-30T05:50:23;4.70;;;3.90;;
12950;SDS011;6540;50.858;7.232;2022-09-30T05:52:49;7.50;;;4.00;;
12950;SDS011;6540;50.858;7.232;2022-09-30T05:55:16;4.70;;;4.27;;
12950;SDS011;6540;50.858;7.232;2022-09-30T05:57:42;3.80;;;3.50;;
12950;SDS011;6540;50.858;7.232;2022-09-30T06:00:10;10.77;;;4.00;;
12950;SDS011;6540;50.858;7.232;2022-09-30T06:02:36;7.53;;;3.90;;
12950;SDS011;6540;50.858;7.232;2022-09-30T06:05:03;5.73;;;4.57;;
12950;SDS011;6540;50.858;7.232;2022-09-30T06:07:29;4.63;;;4.03;;
12950;SDS011;6540;50.858;7.232;2022-09-30T06:09:54;5.30;;;4.70;;
12950;SDS011;6540;50.858;7.232;2022-09-30T06:12:19;6.63;;;4.27;;
12950;SDS011;6540;50.858;7.232;2022-09-30T06:14:45;6.30;;;4.27;;
12950;SDS011;6540;50.858;7.232;2022-09-30T06:17:10;4.90;;;4.10;;
12950;SDS011;6540;50.858;7.232;2022-09-30T06:19:35;4.57;;;4.17;;
12950;SDS011;6540;50.858;7.232;2022-09-30T06:22:01;10.67;;;4.13;;
12950;SDS011;6540;50.858;7.232;2022-09-30T06:24:26;6.50;;;4.30;;
12950;SDS011;6540;50.858;7.232;2022-09-30T06:26:51;5.77;;;4.47;;
12950;SDS011;6540;50.858;7.232;2022-09-30T06:29:17;6.23;;;4.33;;
12950;SDS011;6540;50.858;7.232;2022-09-30T06:31:43;10.27;;;4.73;;
12950;SDS011;6540;50.858;7.232;2022-09-30T06:34:09;5.13;;;4.47;;
12950;SDS011;6540;50.858;7.232;2022-09-30T06:36:34;8.50;;;5.77;;
12950;SDS011;6540;50.858;7.232;2022-09-30T06:38:59;6.70;;;5.90;;
12950;SDS011;6540;50.858;7.232;2022-09-30T06:41:25;5.97;;;4.87;;
12950;SDS011;6540;50.858;7.232;2022-09-30T06:43:52;5.30;;;4.80;;
12950;SDS011;6540;50.858;7.232;2022-09-30T06:46:17;5.40;;;4.37;;
12950;SDS011;6540;50.858;7.232;2022-09-30T06:48:43;10.87;;;4.83;;
12950;SDS011;6540;50.858;7.232;2022-09-30T06:51:09;5.30;;;3.93;;
12950;SDS011;6540;50.858;7.232;2022-09-30T06:53:35;5.53;;;4.30;;
12950;SDS011;6540;50.858;7.232;2022-09-30T06:56:04;5.87;;;4.30;;
12950;SDS011;6540;50.858;7.232;2022-09-30T06:58:30;4.20;;;3.80;;
12950;SDS011;6540;50.858;7.232;2022-09-30T07:00:56;4.30;;;3.90;;
12950;SDS011;6540;50.858;7.232;2022-09-30T07:03:24;5.93;;;3.87;;
12950;SDS011;6540;50.858;7.232;2022-09-30T07:05:59;5.33;;;4.40;;
12950;SDS011;6540;50.858;7.232;2022-09-30T07:08:27;4.93;;;4.43;;
12950;SDS011;6540;50.858;7.232;2022-09-30T07:10:55;4.43;;;4.03;;
12950;SDS011;6540;50.858;7.232;2022-09-30T07:13:22;4.80;;;4.27;;
12950;SDS011;6540;50.858;7.232;2022-09-30T07:15:47;4.27;;;3.87;;
12950;SDS011;6540;50.858;7.232;2022-09-30T07:18:13;5.17;;;4.67;;
12950;SDS011;6540;50.858;7.232;2022-09-30T07:20:46;7.53;;;4.30;;
12950;SDS011;6540;50.858;7.232;2022-09-30T07:23:13;5.50;;;4.73;;
12950;SDS011;6540;50.858;7.232;2022-09-30T07:25:39;5.30;;;4.53;;
12950;SDS011;6540;50.858;7.232;2022-09-30T07:28:04;5.60;;;5.10;;
12950;SDS011;6540;50.858;7.232;2022-09-30T07:30:29;6.70;;;5.00;;
12950;SDS011;6540;50.858;7.232;2022-09-30T07:32:55;5.23;;;4.47;;
12950;SDS011;6540;50.858;7.232;2022-09-30T07:35:20;6.50;;;5.03;;
12950;SDS011;6540;50.858;7.232;2022-09-30T07:37:45;6.03;;;5.43;;
12950;SDS011;6540;50.858;7.232;2022-09-30T07:40:11;6.90;;;5.03;;
12950;SDS011;6540;50.858;7.232;2022-09-30T07:42:37;5.67;;;5.07;;
12950;SDS011;6540;50.858;7.232;2022-09-30T07:45:08;6.00;;;5.37;;
12950;SDS011;6540;50.858;7.232;2022-09-30T07:47:34;5.57;;;5.00;;
12950;SDS011;6540;50.858;7.232;2022-09-30T07:50:00;5.77;;;5.17;;
12950;SDS011;6540;50.858;7.232;2022-09-30T07:52:25;7.07;;;6.13;;
12950;SDS011;6540;50.858;7.232;2022-09-30T07:54:51;8.63;;;6.73;;
12950;SDS011;6540;50.858;7.232;2022-09-30T07:57:16;7.93;;;6.10;;
12950;SDS011;6540;50.858;7.232;2022-09-30T07:59:41;6.93;;;5.43;;
12950;SDS011;6540;50.858;7.232;2022-09-30T08:02:10;5.47;;;4.97;;
12950;SDS011;6540;50.858;7.232;2022-09-30T08:04:38;6.40;;;5.00;;
12950;SDS011;6540;50.858;7.232;2022-09-30T08:07:04;5.73;;;5.13;;
12950;SDS011;6540;50.858;7.232;2022-09-30T08:09:29;6.17;;;5.53;;
12950;SDS011;6540;50.858;7.232;2022-09-30T08:11:55;7.03;;;6.33;;
12950;SDS011;6540;50.858;7.232;2022-09-30T08:14:22;6.00;;;5.40;;
12950;SDS011;6540;50.858;7.232;2022-09-30T08:16:50;8.30;;;6.80;;
12950;SDS011;6540;50.858;7.232;2022-09-30T08:19:17;7.30;;;6.33;;
12950;SDS011;6540;50.858;7.232;2022-09-30T08:21:44;8.10;;;6.77;;
12950;SDS011;6540;50.858;7.232;2022-09-30T08:24:10;6.57;;;5.73;;
12950;SDS011;6540;50.858;7.232;2022-09-30T08:26:36;7.33;;;6.10;;
12950;SDS011;6540;50.858;7.232;2022-09-30T08:29:03;7.43;;;6.03;;
12950;SDS011;6540;50.858;7.232;2022-09-30T08:31:28;16.57;;;6.23;;
12950;SDS011;6540;50.858;7.232;2022-09-30T08:33:54;7.47;;;6.00;;
12950;SDS011;6540;50.858;7.232;2022-09-30T08:36:21;8.17;;;6.33;;
12950;SDS011;6540;50.858;7.232;2022-09-30T08:38:48;7.50;;;5.70;;
12950;SDS011;6540;50.858;7.232;2022-09-30T08:46:45;6.83;;;6.13;;
12950;SDS011;6540;50.858;7.232;2022-09-30T08:51:46;8.60;;;6.63;;
12950;SDS011;6540;50.858;7.232;2022-09-30T08:54:15;8.73;;;6.37;;
12950;SDS011;6540;50.858;7.232;2022-09-30T08:56:44;7.27;;;6.40;;
12950;SDS011;6540;50.858;7.232;2022-09-30T09:04:51;6.97;;;6.27;;
12950;SDS011;6540;50.858;7.232;2022-09-30T09:20:19;6.43;;;5.10;;
12950;SDS011;6540;50.858;7.232;2022-09-30T09:22:49;6.63;;;4.70;;
12950;SDS011;6540;50.858;7.232;2022-09-30T09:25:19;4.43;;;4.03;;
12950;SDS011;6540;50.858;7.232;2022-09-30T09:27:53;4.63;;;4.17;;
12950;SDS011;6540;50.858;7.232;2022-09-30T09:30:22;8.37;;;5.10;;
12950;SDS011;6540;50.858;7.232;2022-09-30T09:32:50;7.47;;;3.90;;
12950;SDS011;6540;50.858;7.232;2022-09-30T09:38:09;3.53;;;3.23;;
12950;SDS011;6540;50.858;7.232;2022-09-30T09:51:38;2.57;;;2.37;;
12950;SDS011;6540;50.858;7.232;2022-09-30T09:54:11;2.57;;;2.37;;
12950;SDS011;6540;50.858;7.232;2022-09-30T09:56:38;4.33;;;2.00;;
12950;SDS011;6540;50.858;7.232;2022-09-30T10:01:33;4.67;;;2.50;;
12950;SDS011;6540;50.858;7.232;2022-09-30T10:06:50;2.37;;;2.00;;
12950;SDS011;6540;50.858;7.232;2022-09-30T10:12:36;3.50;;;1.90;;
12950;SDS011;6540;50.858;7.232;2022-09-30T10:14:56;3.00;;;1.70;;
12950;SDS011;6540;50.858;7.232;2022-09-30T10:19:50;1.50;;;1.40;;
12950;SDS011;6540;50.858;7.232;2022-09-30T10:22:22;4.40;;;2.40;;
12950;SDS011;6540;50.858;7.232;2022-09-30T10:24:51;2.57;;;1.50;;
12950;SDS011;6540;50.858;7.232;2022-09-30T10:27:29;1.73;;;1.53;;
12950;SDS011;6540;50.858;7.232;2022-09-30T10:29:56;1.53;;;1.43;;
12950;SDS011;6540;50.858;7.232;2022-09-30T10:32:22;2.87;;;1.90;;
12950;SDS011;6540;50.858;7.232;2022-09-30T10:35:03;1.70;;;1.60;;
12950;SDS011;6540;50.858;7.232;2022-09-30T10:37:48;1.70;;;1.60;;
12950;SDS011;6540;50.858;7.232;2022-09-30T10:40:16;2.93;;;1.90;;
12950;SDS011;6540;50.858;7.232;2022-09-30T10:42:44;2.27;;;1.20;;
12950;SDS011;6540;50.858;7.232;2022-09-30T10:45:17;1.60;;;1.50;;
12950;SDS011;6540;50.858;7.232;2022-09-30T10:47:46;2.60;;;1.53;;
12950;SDS011;6540;50.858;7.232;2022-09-30T10:50:15;1.60;;;1.50;;
12950;SDS011;6540;50.858;7.232;2022-09-30T10:53:01;1.67;;;1.57;;
12950;SDS011;6540;50.858;7.232;2022-09-30T10:55:42;1.60;;;1.50;;
12950;SDS011;6540;50.858;7.232;2022-09-30T11:03:29;1.20;;;1.20;;
12950;SDS011;6540;50.858;7.232;2022-09-30T11:06:17;2.47;;;1.60;;
12950;SDS011;6540;50.858;7.232;2022-09-30T11:12:08;1.80;;;1.70;;
12950;SDS011;6540;50.858;7.232;2022-09-30T11:14:48;2.27;;;1.43;;
12950;SDS011;6540;50.858;7.232;2022-09-30T11:20:35;1.83;;;1.73;;
12950;SDS011;6540;50.858;7.232;2022-09-30T11:23:16;2.00;;;1.80;;
12950;SDS011;6540;50.858;7.232;2022-09-30T11:25:48;1.83;;;1.57;;
12950;SDS011;6540;50.858;7.232;2022-09-30T11:31:11;3.63;;;2.50;;
12950;SDS011;6540;50.858;7.232;2022-09-30T11:33:51;2.87;;;2.27;;
12950;SDS011;6540;50.858;7.232;2022-09-30T11:36:27;3.03;;;2.10;;
12950;SDS011;6540;50.858;7.232;2022-09-30T11:42:16;2.40;;;2.20;;
12950;SDS011;6540;50.858;7.232;2022-09-30T11:44:57;1.90;;;1.80;;
12950;SDS011;6540;50.858;7.232;2022-09-30T11:47:43;2.33;;;1.90;;
12950;SDS011;6540;50.858;7.232;2022-09-30T11:55:53;3.50;;;2.13;;
12950;SDS011;6540;50.858;7.232;2022-09-30T11:58:30;3.47;;;1.97;;
12950;SDS011;6540;50.858;7.232;2022-09-30T12:01:46;1.43;;;1.33;;
12950;SDS011;6540;50.858;7.232;2022-09-30T12:03:54;1.67;;;1.47;;
12950;SDS011;6540;50.858;7.232;2022-09-30T12:06:31;2.53;;;1.60;;
12950;SDS011;6540;50.858;7.232;2022-09-30T12:09:05;1.47;;;1.33;;
12950;SDS011;6540;50.858;7.232;2022-09-30T12:11:57;1.40;;;1.30;;
12950;SDS011;6540;50.858;7.232;2022-09-30T12:14:33;2.37;;;1.40;;
12950;SDS011;6540;50.858;7.232;2022-09-30T12:17:06;2.43;;;1.40;;
12950;SDS011;6540;50.858;7.232;2022-09-30T12:19:40;3.83;;;1.67;;
12950;SDS011;6540;50.858;7.232;2022-09-30T12:22:11;2.50;;;1.30;;
12950;SDS011;6540;50.858;7.232;2022-09-30T12:24:41;1.87;;;1.50;;
12950;SDS011;6540;50.858;7.232;2022-09-30T12:40:55;2.00;;;1.60;;
12950;SDS011;6540;50.858;7.232;2022-09-30T12:46:08;3.50;;;1.47;;
12950;SDS011;6540;50.858;7.232;2022-09-30T12:48:53;2.43;;;1.40;;
12950;SDS011;6540;50.858;7.232;2022-09-30T12:51:31;1.43;;;1.33;;
12950;SDS011;6540;50.858;7.232;2022-09-30T12:54:05;2.37;;;1.53;;
12950;SDS011;6540;50.858;7.232;2022-09-30T12:56:40;2.23;;;1.47;;
12950;SDS011;6540;50.858;7.232;2022-09-30T12:59:08;1.93;;;1.60;;
12950;SDS011;6540;50.858;7.232;2022-09-30T13:01:35;4.73;;;1.70;;
12950;SDS011;6540;50.858;7.232;2022-09-30T13:11:43;1.40;;;1.30;;
12950;SDS011;6540;50.858;7.232;2022-09-30T13:14:39;1.37;;;1.20;;
12950;SDS011;6540;50.858;7.232;2022-09-30T13:19:41;2.03;;;1.50;;
12950;SDS011;6540;50.858;7.232;2022-09-30T13:27:31;1.50;;;1.40;;
12950;SDS011;6540;50.858;7.232;2022-09-30T13:32:43;2.93;;;1.27;;
12950;SDS011;6540;50.858;7.232;2022-09-30T13:40:46;1.20;;;1.07;;
12950;SDS011;6540;50.858;7.232;2022-09-30T13:43:15;1.50;;;1.40;;
12950;SDS011;6540;50.858;7.232;2022-09-30T13:45:44;1.73;;;1.17;;
12950;SDS011;6540;50.858;7.232;2022-09-30T13:48:13;1.23;;;1.07;;
12950;SDS011;6540;50.858;7.232;2022-09-30T13:53:22;1.20;;;1.10;;
12950;SDS011;6540;50.858;7.232;2022-09-30T13:55:52;2.33;;;1.00;;
12950;SDS011;6540;50.858;7.232;2022-09-30T13:58:33;1.27;;;1.17;;
12950;SDS011;6540;50.858;7.232;2022-09-30T14:18:04;0.90;;;0.90;;
12950;SDS011;6540;50.858;7.232;2022-09-30T14:20:49;0.70;;;0.70;;
12950;SDS011;6540;50.858;7.232;2022-09-30T14:23:23;4.27;;;0.90;;
12950;SDS011;6540;50.858;7.232;2022-09-30T14:28:24;1.23;;;1.10;;
12950;SDS011;6540;50.858;7.232;2022-09-30T14:30:58;1.77;;;0.97;;
12950;SDS011;6540;50.858;7.232;2022-09-30T14:33:36;1.27;;;1.00;;
12950;SDS011;6540;50.858;7.232;2022-09-30T14:36:05;1.30;;;0.93;;
12950;SDS011;6540;50.858;7.232;2022-09-30T14:38:36;1.37;;;1.27;;
12950;SDS011;6540;50.858;7.232;2022-09-30T14:41:03;1.73;;;1.37;;
12950;SDS011;6540;50.858;7.232;2022-09-30T14:43:35;2.20;;;1.57;;
12950;SDS011;6540;50.858;7.232;2022-09-30T14:46:05;1.17;;;0.80;;
12950;SDS011;6540;50.858;7.232;2022-09-30T14:48:37;1.77;;;1.10;;
12950;SDS011;6540;50.858;7.232;2022-09-30T14:51:10;2.70;;;1.30;;
12950;SDS011;6540;50.858;7.232;2022-09-30T14:53:39;1.87;;;0.90;;
12950;SDS011;6540;50.858;7.232;2022-09-30T14:56:20;1.80;;;0.77;;
12950;SDS011;6540;50.858;7.232;2022-09-30T14:58:51;1.33;;;1.10;;
12950;SDS011;6540;50.858;7.232;2022-09-30T15:01:18;1.43;;;1.00;;
12950;SDS011;6540;50.858;7.232;2022-09-30T15:06:34;3.13;;;1.30;;
12950;SDS011;6540;50.858;7.232;2022-09-30T15:11:49;2.03;;;1.50;;
12950;SDS011;6540;50.858;7.232;2022-09-30T15:14:21;1.57;;;1.30;;
12950;SDS011;6540;50.858;7.232;2022-09-30T15:16:49;3.23;;;1.37;;
12950;SDS011;6540;50.858;7.232;2022-09-30T15:21:54;1.80;;;1.30;;
12950;SDS011;6540;50.858;7.232;2022-09-30T15:24:22;1.30;;;0.97;;
12950;SDS011;6540;50.858;7.232;2022-09-30T15:26:50;2.47;;;1.60;;
12950;SDS011;6540;50.858;7.232;2022-09-30T15:29:18;1.73;;;1.03;;
12950;SDS011;6540;50.858;7.232;2022-09-30T15:31:48;1.60;;;1.10;;
12950;SDS011;6540;50.858;7.232;2022-09-30T15:34:20;1.90;;;1.37;;
12950;SDS011;6540;50.858;7.232;2022-09-30T15:36:55;1.43;;;1.07;;
12950;SDS011;6540;50.858;7.232;2022-09-30T15:39:30;1.43;;;1.33;;
12950;SDS011;6540;50.858;7.232;2022-09-30T15:55:41;4.27;;;2.67;;
12950;SDS011;6540;50.858;7.232;2022-09-30T16:03:58;3.87;;;2.00;;
12950;SDS011;6540;50.858;7.232;2022-09-30T16:06:52;3.33;;;1.70;;
12950;SDS011;6540;50.858;7.232;2022-09-30T16:09:33;2.57;;;1.70;;
12950;SDS011;6540;50.858;7.232;2022-09-30T16:17:25;1.33;;;1.23;;
12950;SDS011;6540;50.858;7.232;2022-09-30T16:27:42;2.37;;;2.00;;
12950;SDS011;6540;50.858;7.232;2022-09-30T16:30:11;2.50;;;2.30;;
12950;SDS011;6540;50.858;7.232;2022-09-30T16:32:39;3.07;;;1.90;;
12950;SDS011;6540;50.858;7.232;2022-09-30T16:35:15;1.77;;;1.67;;
12950;SDS011;6540;50.858;7.232;2022-09-30T16:37:45;2.30;;;2.10;;
12950;SDS011;6540;50.858;7.232;2022-09-30T16:40:17;9.47;;;5.60;;
12950;SDS011;6540;50.858;7.232;2022-09-30T16:42:47;8.10;;;4.97;;
12950;SDS011;6540;50.858;7.232;2022-09-30T16:45:13;5.47;;;3.53;;
12950;SDS011;6540;50.858;7.232;2022-09-30T16:47:39;4.17;;;2.30;;
12950;SDS011;6540;50.858;7.232;2022-09-30T16:50:29;5.37;;;2.80;;
12950;SDS011;6540;50.858;7.232;2022-09-30T16:52:54;6.40;;;3.33;;
12950;SDS011;6540;50.858;7.232;2022-09-30T16:55:20;3.50;;;2.27;;
12950;SDS011;6540;50.858;7.232;2022-09-30T16:57:46;4.03;;;2.10;;
12950;SDS011;6540;50.858;7.232;2022-09-30T17:00:12;4.87;;;2.00;;
12950;SDS011;6540;50.858;7.232;2022-09-30T17:02:43;6.00;;;2.60;;
12950;SDS011;6540;50.858;7.232;2022-09-30T17:05:16;4.47;;;2.47;;
12950;SDS011;6540;50.858;7.232;2022-09-30T17:07:43;2.83;;;2.13;;
12950;SDS011;6540;50.858;7.232;2022-09-30T17:10:14;3.47;;;2.30;;
12950;SDS011;6540;50.858;7.232;2022-09-30T17:12:42;2.53;;;1.77;;
12950;SDS011;6540;50.858;7.232;2022-09-30T17:15:07;3.47;;;3.17;;
12950;SDS011;6540;50.858;7.232;2022-09-30T17:17:33;2.37;;;2.10;;
12950;SDS011;6540;50.858;7.232;2022-09-30T17:19:59;3.10;;;2.10;;
12950;SDS011;6540;50.858;7.232;2022-09-30T17:22:25;1.70;;;1.60;;
12950;SDS011;6540;50.858;7.232;2022-09-30T17:24:50;1.80;;;1.63;;
12950;SDS011;6540;50.858;7.232;2022-09-30T17:27:16;2.50;;;1.60;;
12950;SDS011;6540;50.858;7.232;2022-09-30T17:29:41;3.77;;;1.60;;
12950;SDS011;6540;50.858;7.232;2022-09-30T17:32:07;1.90;;;1.70;;
12950;SDS011;6540;50.858;7.232;2022-09-30T17:34:32;1.97;;;1.70;;
12950;SDS011;6540;50.858;7.232;2022-09-30T17:36:57;1.63;;;1.53;;
12950;SDS011;6540;50.858;7.232;2022-09-30T17:39:26;3.40;;;2.27;;
12950;SDS011;6540;50.858;7.232;2022-09-30T17:41:52;3.20;;;2.90;;
12950;SDS011;6540;50.858;7.232;2022-09-30T17:44:36;4.70;;;3.67;;
12950;SDS011;6540;50.858;7.232;2022-09-30T17:47:03;4.70;;;3.50;;
12950;SDS011;6540;50.858;7.232;2022-09-30T17:49:32;5.00;;;4.03;;
12950;SDS011;6540;50.858;7.232;2022-09-30T17:51:59;6.13;;;4.70;;
12950;SDS011;6540;50.858;7.232;2022-09-30T17:54:24;5.07;;;4.27;;
12950;SDS011;6540;50.858;7.232;2022-09-30T17:56:51;4.97;;;3.90;;
12950;SDS011;6540;50.858;7.232;2022-09-30T17:59:16;5.00;;;4.33;;
12950;SDS011;6540;50.858;7.232;2022-09-30T18:01:43;5.57;;;4.63;;
12950;SDS011;6540;50.858;7.232;2022-09-30T18:04:09;5.93;;;5.07;;
12950;SDS011;6540;50.858;7.232;2022-09-30T18:06:34;6.27;;;5.53;;
12950;SDS011;6540;50.858;7.232;2022-09-30T18:08:59;7.67;;;5.80;;
12950;SDS011;6540;50.858;7.232;2022-09-30T18:11:25;5.80;;;5.20;;
12950;SDS011;6540;50.858;7.232;2022-09-30T18:13:53;5.03;;;3.97;;
12950;SDS011;6540;50.858;7.232;2022-09-30T18:16:21;5.67;;;3.77;;
12950;SDS011;6540;50.858;7.232;2022-09-30T18:18:48;6.50;;;3.20;;
12950;SDS011;6540;50.858;7.232;2022-09-30T18:21:14;4.00;;;3.40;;
12950;SDS011;6540;50.858;7.232;2022-09-30T18:23:39;3.70;;;3.40;;
12950;SDS011;6540;50.858;7.232;2022-09-30T18:26:04;4.67;;;3.90;;
12950;SDS011;6540;50.858;7.232;2022-09-30T18:28:30;4.83;;;3.70;;
12950;SDS011;6540;50.858;7.232;2022-09-30T18:30:55;4.13;;;3.70;;
12950;SDS011;6540;50.858;7.232;2022-09-30T18:33:21;4.60;;;4.20;;
12950;SDS011;6540;50.858;7.232;2022-09-30T18:35:46;7.00;;;4.60;;
12950;SDS011;6540;50.858;7.232;2022-09-30T18:38:12;5.37;;;3.90;;
12950;SDS011;6540;50.858;7.232;2022-09-30T18:40:39;4.40;;;3.23;;
12950;SDS011;6540;50.858;7.232;2022-09-30T18:43:06;6.03;;;4.50;;
12950;SDS011;6540;50.858;7.232;2022-09-30T18:45:32;5.23;;;3.50;;
12950;SDS011;6540;50.858;7.232;2022-09-30T18:48:04;7.13;;;4.07;;
12950;SDS011;6540;50.858;7.232;2022-09-30T18:50:31;4.40;;;3.53;;
12950;SDS011;6540;50.858;7.232;2022-09-30T18:52:58;5.60;;;4.70;;
12950;SDS011;6540;50.858;7.232;2022-09-30T18:55:26;11.00;;;6.17;;
12950;SDS011;6540;50.858;7.232;2022-09-30T18:57:53;7.07;;;6.17;;
12950;SDS011;6540;50.858;7.232;2022-09-30T19:00:19;8.03;;;7.20;;
12950;SDS011;6540;50.858;7.232;2022-09-30T19:02:44;13.77;;;9.43;;
12950;SDS011;6540;50.858;7.232;2022-09-30T19:05:11;18.33;;;10.90;;
12950;SDS011;6540;50.858;7.232;2022-09-30T19:07:37;14.17;;;10.67;;
12950;SDS011;6540;50.858;7.232;2022-09-30T19:10:03;16.47;;;11.90;;
12950;SDS011;6540;50.858;7.232;2022-09-30T19:12:33;19.27;;;12.93;;
12950;SDS011;6540;50.858;7.232;2022-09-30T19:15:00;16.80;;;12.73;;
12950;SDS011;6540;50.858;7.232;2022-09-30T19:17:29;18.70;;;13.40;;
12950;SDS011;6540;50.858;7.232;2022-09-30T19:19:55;15.00;;;12.83;;
12950;SDS011;6540;50.858;7.232;2022-09-30T19:22:22;16.77;;;12.30;;